Time;durP1;ratioP1;P1;durP2;ratioP2;P2;SDS_P1;SDS_P2;PMS_P1;PMS_P2;Temp;Humidity;BMP_temperature;BMP_pressure;BME280_temperature;BME280_humidity;BME280_pressure;Samples;Min_cycle;Max_cycle;Signal;HPM_P1;HPM_P2
2022/08/07 00:00:43;;;;;;;2.40;1.45;;;12.80;99.90;;;;;;5022759;28;20059;-73
2022/08/07 00:03:09;;;;;;;2.67;1.95;;;12.80;99.90;;;;;;5019321;28;20079;-73
2022/08/07 00:05:36;;;;;;;2.17;1.67;;;12.70;99.90;;;;;;5019519;28;20488;-74
2022/08/07 00:08:03;;;;;;;2.45;1.70;;;12.70;99.90;;;;;;5030345;28;20048;-74
2022/08/07 00:10:29;;;;;;;2.35;1.52;;;12.60;99.90;;;;;;5011067;28;20448;-72
2022/08/07 00:12:55;;;;;;;2.03;1.60;;;12.70;99.90;;;;;;5022811;28;20021;-74
2022/08/07 00:15:20;;;;;;;3.22;1.90;;;12.80;99.90;;;;;;5020491;28;20040;-73
2022/08/07 00:17:46;;;;;;;1.95;1.48;;;12.80;99.90;;;;;;5023435;28;20399;-72
2022/08/07 00:20:11;;;;;;;1.60;1.50;;;12.70;99.90;;;;;;5017030;28;20022;-73
2022/08/07 00:22:37;;;;;;;2.38;1.50;;;12.80;99.90;;;;;;5012492;28;20025;-73
2022/08/07 00:25:05;;;;;;;2.42;1.80;;;12.80;99.90;;;;;;5018951;28;20135;-74
2022/08/07 00:27:31;;;;;;;1.88;1.67;;;12.70;99.90;;;;;;5018187;28;20041;-74
2022/08/07 00:29:57;;;;;;;1.70;1.30;;;12.60;99.90;;;;;;5025448;28;20045;-73
2022/08/07 00:32:22;;;;;;;5.85;1.98;;;12.50;99.90;;;;;;5025743;28;20095;-73
2022/08/07 00:34:48;;;;;;;1.88;1.60;;;12.50;99.90;;;;;;5015072;28;20112;-72
2022/08/07 00:37:14;;;;;;;1.58;1.35;;;12.50;99.90;;;;;;5020830;28;20021;-74
2022/08/07 00:39:40;;;;;;;1.60;1.30;;;12.60;99.90;;;;;;5024133;28;20108;-73
2022/08/07 00:42:06;;;;;;;2.40;1.55;;;12.60;99.90;;;;;;5023524;28;20671;-74
2022/08/07 00:44:32;;;;;;;2.63;1.83;;;12.50;99.90;;;;;;5025396;28;20068;-74
2022/08/07 00:46:58;;;;;;;2.05;1.60;;;12.30;99.90;;;;;;5023541;28;20098;-74
2022/08/07 00:49:23;;;;;;;2.38;1.70;;;12.30;99.90;;;;;;5022710;28;20457;-74
2022/08/07 00:51:49;;;;;;;1.75;1.60;;;12.30;99.90;;;;;;5030338;28;20262;-74
2022/08/07 00:54:14;;;;;;;2.92;2.03;;;12.40;99.90;;;;;;5022755;28;20029;-74
2022/08/07 00:56:40;;;;;;;5.78;1.80;;;12.40;99.90;;;;;;5018529;28;20034;-74
2022/08/07 00:59:06;;;;;;;1.77;1.65;;;12.30;99.90;;;;;;5025183;28;20061;-74
2022/08/07 01:01:33;;;;;;;1.90;1.63;;;12.30;99.90;;;;;;5018410;28;20473;-73
2022/08/07 01:03:59;;;;;;;2.30;1.52;;;12.30;99.90;;;;;;5026426;28;20025;-74
2022/08/07 01:06:25;;;;;;;6.53;1.73;;;12.30;99.90;;;;;;5021883;28;20029;-74
2022/08/07 01:08:51;;;;;;;2.13;1.50;;;12.30;99.90;;;;;;5019019;28;20030;-74
2022/08/07 01:11:17;;;;;;;2.20;2.00;;;12.20;99.90;;;;;;5027889;28;20064;-73
2022/08/07 01:13:42;;;;;;;2.30;1.58;;;12.30;99.90;;;;;;5023050;28;20029;-73
2022/08/07 01:16:08;;;;;;;1.55;1.17;;;12.30;99.90;;;;;;5021224;28;20440;-72
2022/08/07 01:18:35;;;;;;;2.42;1.40;;;12.20;99.90;;;;;;5019720;28;20032;-73
2022/08/07 01:21:14;;;;;;;5.82;1.80;;;12.20;99.90;;;;;;5019077;28;20033;-73
2022/08/07 01:23:41;;;;;;;1.83;1.50;;;12.20;99.90;;;;;;5022675;28;20025;-74
2022/08/07 01:26:09;;;;;;;2.25;1.70;;;12.20;99.90;;;;;;5024581;28;20187;-73
2022/08/07 01:28:36;;;;;;;1.58;1.48;;;12.10;99.90;;;;;;5020483;28;20678;-72
2022/08/07 01:31:03;;;;;;;2.38;1.48;;;12.20;99.90;;;;;;5022671;28;20025;-72
2022/08/07 01:33:29;;;;;;;1.67;1.58;;;12.10;99.90;;;;;;5020195;28;20013;-71
2022/08/07 01:35:56;;;;;;;2.60;1.52;;;12.10;99.90;;;;;;5021172;28;20048;-73
2022/08/07 01:38:23;;;;;;;2.08;1.42;;;12.00;99.90;;;;;;5019263;28;20539;-72
2022/08/07 01:40:49;;;;;;;2.10;1.52;;;12.00;99.90;;;;;;5017000;28;20036;-72
2022/08/07 01:43:15;;;;;;;2.45;1.55;;;11.90;99.90;;;;;;5019370;28;20124;-72
2022/08/07 01:45:42;;;;;;;1.52;1.42;;;11.80;99.90;;;;;;5025013;28;20116;-72
2022/08/07 01:48:07;;;;;;;1.92;1.73;;;11.90;99.90;;;;;;5023083;28;20037;-72
2022/08/07 01:50:36;;;;;;;2.28;1.70;;;11.80;99.90;;;;;;5020600;28;20029;-72
2022/08/07 01:53:04;;;;;;;1.80;1.33;;;11.80;99.90;;;;;;5017065;28;20044;-71
2022/08/07 01:55:37;;;;;;;1.70;1.38;;;11.80;99.90;;;;;;5018856;28;20013;-72
2022/08/07 01:58:08;;;;;;;1.90;1.52;;;11.80;99.90;;;;;;5023617;28;20025;-71
2022/08/07 02:00:35;;;;;;;3.60;1.63;;;11.80;99.90;;;;;;5021471;28;20040;-72
2022/08/07 02:03:05;;;;;;;1.92;1.70;;;11.80;99.90;;;;;;5021174;28;20037;-72
2022/08/07 02:05:33;;;;;;;1.52;1.15;;;11.80;99.90;;;;;;5024252;28;20068;-72
2022/08/07 02:08:02;;;;;;;2.15;1.70;;;11.70;99.90;;;;;;5025103;28;20098;-72
2022/08/07 02:10:30;;;;;;;1.48;1.17;;;11.80;99.90;;;;;;5014994;28;20044;-72
2022/08/07 02:13:00;;;;;;;1.50;1.30;;;11.70;99.90;;;;;;5017588;28;20500;-72
2022/08/07 02:15:27;;;;;;;1.70;1.20;;;11.70;99.90;;;;;;5019865;28;20025;-72
2022/08/07 02:17:54;;;;;;;3.13;1.90;;;11.70;99.90;;;;;;5020886;28;20060;-72
2022/08/07 02:20:22;;;;;;;2.13;1.17;;;11.70;99.90;;;;;;5022103;28;20040;-72
2022/08/07 02:22:48;;;;;;;1.45;1.33;;;11.60;99.90;;;;;;5018706;28;20068;-72
2022/08/07 02:25:16;;;;;;;2.00;1.27;;;11.50;99.90;;;;;;5018659;28;20229;-72
2022/08/07 02:27:43;;;;;;;2.30;1.23;;;11.50;99.90;;;;;;5028535;28;20030;-73
2022/08/07 02:30:09;;;;;;;2.47;1.30;;;11.40;99.90;;;;;;5021548;28;20056;-72
2022/08/07 02:32:36;;;;;;;1.83;1.35;;;11.40;99.90;;;;;;5023995;28;20079;-73
2022/08/07 02:35:04;;;;;;;2.67;1.40;;;11.50;99.90;;;;;;5021621;28;20485;-72
2022/08/07 02:37:32;;;;;;;1.45;1.30;;;11.40;99.90;;;;;;5014765;28;20049;-72
2022/08/07 02:39:58;;;;;;;1.45;1.17;;;11.50;99.90;;;;;;5023345;28;20033;-72
2022/08/07 02:42:24;;;;;;;1.25;0.90;;;11.50;99.90;;;;;;5014708;28;20056;-72
2022/08/07 02:44:52;;;;;;;1.23;1.00;;;11.40;99.90;;;;;;5018031;28;20060;-72
2022/08/07 02:47:18;;;;;;;1.98;1.63;;;11.40;99.90;;;;;;5027274;28;20033;-72
2022/08/07 02:49:44;;;;;;;5.38;1.67;;;11.30;99.90;;;;;;5021615;28;20033;-72
2022/08/07 02:52:16;;;;;;;1.80;1.08;;;11.20;99.90;;;;;;5018564;28;20029;-71
2022/08/07 02:54:42;;;;;;;1.20;1.10;;;11.30;99.90;;;;;;5017443;28;20134;-71
2022/08/07 02:57:14;;;;;;;2.28;1.08;;;11.40;99.90;;;;;;5021134;28;20404;-72
2022/08/07 02:59:47;;;;;;;1.25;1.13;;;11.40;99.90;;;;;;5024463;28;20029;-72
2022/08/07 03:02:14;;;;;;;1.92;1.50;;;11.40;99.90;;;;;;5019313;28;20659;-71
2022/08/07 03:04:43;;;;;;;1.80;1.13;;;11.40;99.90;;;;;;5022437;28;20103;-72
2022/08/07 03:07:10;;;;;;;1.02;0.90;;;11.30;99.90;;;;;;5021632;28;20128;-73
2022/08/07 03:09:36;;;;;;;0.90;0.90;;;11.30;99.90;;;;;;5021055;28;20137;-72
2022/08/07 03:12:04;;;;;;;1.30;1.10;;;11.30;99.90;;;;;;5020588;28;20555;-72
2022/08/07 03:14:30;;;;;;;1.60;1.15;;;11.30;99.90;;;;;;5019981;28;20650;-72
2022/08/07 03:16:56;;;;;;;1.58;1.33;;;11.30;99.90;;;;;;5020455;28;20033;-73
2022/08/07 03:19:23;;;;;;;7.55;1.25;;;11.30;99.90;;;;;;5014215;28;20045;-72
2022/08/07 03:21:51;;;;;;;2.83;1.40;;;11.20;99.90;;;;;;5016625;28;20030;-72
2022/08/07 03:24:17;;;;;;;2.15;1.48;;;11.10;99.90;;;;;;5017482;28;20037;-73
2022/08/07 03:26:45;;;;;;;1.10;1.00;;;11.20;99.90;;;;;;5023345;28;20038;-73
2022/08/07 03:29:12;;;;;;;1.15;1.00;;;11.10;99.90;;;;;;5019954;28;20151;-73
2022/08/07 03:31:40;;;;;;;2.60;1.40;;;11.10;99.90;;;;;;5022023;28;21050;-73
2022/08/07 03:34:08;;;;;;;1.60;1.40;;;11.10;99.90;;;;;;5020902;28;20037;-73
2022/08/07 03:36:35;;;;;;;3.50;1.20;;;11.10;99.90;;;;;;5019886;28;20472;-72
2022/08/07 03:39:08;;;;;;;5.40;1.10;;;11.10;99.90;;;;;;5024284;28;20057;-73
2022/08/07 03:41:35;;;;;;;1.20;1.10;;;11.10;99.90;;;;;;5026038;28;20029;-73
2022/08/07 03:44:01;;;;;;;1.25;1.15;;;11.00;99.90;;;;;;5027021;28;20029;-72
2022/08/07 03:46:28;;;;;;;2.90;1.38;;;11.10;99.90;;;;;;5028536;28;20037;-73
2022/08/07 03:48:53;;;;;;;1.63;1.15;;;11.20;99.90;;;;;;5022915;28;20064;-72
2022/08/07 03:51:20;;;;;;;2.35;1.50;;;11.20;99.90;;;;;;5017261;28;20061;-73
2022/08/07 03:53:46;;;;;;;1.90;1.30;;;11.10;99.90;;;;;;5020116;28;20507;-72
2022/08/07 03:56:15;;;;;;;2.67;1.30;;;11.10;99.90;;;;;;5022834;28;20021;-73
2022/08/07 03:58:41;;;;;;;1.10;1.00;;;11.10;99.90;;;;;;5017901;28;20057;-72
2022/08/07 04:01:09;;;;;;;1.88;1.30;;;11.10;99.90;;;;;;5021041;28;20056;-73
2022/08/07 04:03:35;;;;;;;1.75;1.25;;;11.10;99.90;;;;;;5023677;28;20404;-73
2022/08/07 04:06:00;;;;;;;1.42;1.33;;;11.10;99.90;;;;;;5022535;28;20032;-73
2022/08/07 04:08:26;;;;;;;1.42;1.30;;;11.10;99.90;;;;;;5026555;28;20037;-73
2022/08/07 04:10:53;;;;;;;0.90;0.90;;;11.20;99.90;;;;;;5022791;28;20648;-72
2022/08/07 04:13:19;;;;;;;1.63;1.10;;;11.20;99.90;;;;;;5022568;28;20083;-72
2022/08/07 04:15:45;;;;;;;1.08;0.90;;;11.20;99.90;;;;;;5021968;28;20029;-72
2022/08/07 04:18:12;;;;;;;1.40;1.30;;;11.30;99.90;;;;;;5022188;28;20033;-72
2022/08/07 04:20:38;;;;;;;0.90;0.90;;;11.30;99.90;;;;;;5024836;28;20029;-72
2022/08/07 04:23:04;;;;;;;1.95;1.48;;;11.30;99.90;;;;;;5026360;28;20033;-71
2022/08/07 04:25:30;;;;;;;1.40;1.30;;;11.40;99.90;;;;;;5024267;28;20030;-72
2022/08/07 04:27:56;;;;;;;5.00;2.00;;;11.40;99.90;;;;;;5027050;28;20029;-73
2022/08/07 04:30:21;;;;;;;1.23;1.10;;;11.40;99.90;;;;;;5021229;28;20099;-73
2022/08/07 04:32:48;;;;;;;1.40;0.90;;;11.50;99.90;;;;;;5027167;28;20071;-72
2022/08/07 04:35:14;;;;;;;1.25;1.02;;;11.50;99.90;;;;;;5020079;28;20757;-73
2022/08/07 04:37:39;;;;;;;1.02;0.90;;;11.50;99.90;;;;;;5022534;28;20040;-72
2022/08/07 04:40:06;;;;;;;1.45;1.25;;;11.50;99.90;;;;;;5021559;28;20066;-74
2022/08/07 04:42:33;;;;;;;1.45;1.35;;;11.50;99.90;;;;;;5024732;28;20033;-71
2022/08/07 04:45:00;;;;;;;1.45;1.20;;;11.60;99.90;;;;;;5024683;28;20551;-72
2022/08/07 04:48:06;;;;;;;2.22;1.38;;;11.60;99.90;;;;;;5022755;28;20052;-73
2022/08/07 04:50:45;;;;;;;3.83;1.50;;;11.70;99.90;;;;;;5024676;28;20516;-74
2022/08/07 04:53:16;;;;;;;2.03;1.25;;;11.70;99.90;;;;;;5024805;28;20017;-73
2022/08/07 04:55:56;;;;;;;2.60;1.30;;;11.80;99.90;;;;;;5019065;28;20458;-74
2022/08/07 04:58:30;;;;;;;1.30;1.17;;;11.90;99.90;;;;;;5018596;28;20060;-71
2022/08/07 05:01:31;;;;;;;1.95;1.35;;;11.90;99.90;;;;;;5019914;28;20115;-71
2022/08/07 05:04:22;;;;;;;1.33;1.10;;;12.10;99.90;;;;;;5020855;28;20045;-72
2022/08/07 05:06:52;;;;;;;2.35;1.25;;;12.10;99.90;;;;;;5017464;28;20040;-72
2022/08/07 05:09:34;;;;;;;1.17;1.00;;;12.10;99.90;;;;;;5021254;28;20060;-71
2022/08/07 05:12:03;;;;;;;1.65;1.38;;;12.10;99.90;;;;;;5026348;28;20112;-72
2022/08/07 05:14:43;;;;;;;1.52;1.27;;;12.20;99.90;;;;;;5025578;28;20060;-71
2022/08/07 05:17:12;;;;;;;1.42;1.05;;;12.30;99.90;;;;;;5022704;28;20384;-72
2022/08/07 05:19:43;;;;;;;1.85;1.15;;;12.40;99.90;;;;;;5022720;28;20476;-73
2022/08/07 05:22:10;;;;;;;1.40;1.15;;;12.50;99.90;;;;;;5021561;28;20034;-73
2022/08/07 05:24:37;;;;;;;2.22;1.65;;;12.50;99.90;;;;;;5023520;28;20040;-72
2022/08/07 05:27:06;;;;;;;2.00;1.35;;;12.60;99.90;;;;;;5022111;28;20021;-73
2022/08/07 05:29:33;;;;;;;2.10;1.13;;;12.70;99.90;;;;;;5022217;28;20045;-73
2022/08/07 05:32:00;;;;;;;2.38;0.90;;;12.80;99.90;;;;;;5017508;28;20017;-71
2022/08/07 05:34:27;;;;;;;0.82;0.82;;;12.90;99.90;;;;;;5018641;28;20021;-72
2022/08/07 05:36:54;;;;;;;5.72;1.67;;;13.00;99.90;;;;;;5026320;28;20029;-72
2022/08/07 05:39:22;;;;;;;1.50;0.93;;;13.10;99.90;;;;;;5019339;28;20037;-72
2022/08/07 05:41:48;;;;;;;1.20;1.00;;;13.20;99.90;;;;;;5023907;28;20029;-72
2022/08/07 05:44:16;;;;;;;1.13;1.02;;;13.30;99.90;;;;;;5021300;28;20560;-73
2022/08/07 05:46:43;;;;;;;1.00;0.90;;;13.50;99.90;;;;;;5024205;28;20033;-72
2022/08/07 05:49:10;;;;;;;3.15;1.20;;;13.60;99.90;;;;;;5019090;28;20029;-73
2022/08/07 05:51:36;;;;;;;1.10;1.00;;;13.70;99.90;;;;;;5020620;28;20029;-73
2022/08/07 05:54:02;;;;;;;5.65;1.27;;;13.80;99.90;;;;;;5020246;28;20029;-73
2022/08/07 05:56:30;;;;;;;0.73;0.73;;;14.00;99.90;;;;;;5028650;28;20040;-73
2022/08/07 05:58:57;;;;;;;1.33;0.93;;;14.10;99.90;;;;;;5022296;28;20025;-73
2022/08/07 06:01:25;;;;;;;1.33;0.93;;;14.20;99.90;;;;;;5020868;28;20025;-72
2022/08/07 06:03:53;;;;;;;1.73;1.20;;;14.30;99.90;;;;;;5021812;28;20033;-73
2022/08/07 06:06:19;;;;;;;2.22;1.27;;;14.40;99.90;;;;;;5017757;28;20040;-72
2022/08/07 06:08:46;;;;;;;2.97;1.17;;;14.50;99.90;;;;;;5026687;28;20030;-72
2022/08/07 06:11:12;;;;;;;1.13;0.88;;;14.60;99.90;;;;;;5019185;28;20048;-73
2022/08/07 06:13:38;;;;;;;1.13;0.80;;;14.70;99.90;;;;;;5022619;28;20121;-73
2022/08/07 06:16:06;;;;;;;0.80;0.68;;;14.80;99.90;;;;;;5019511;28;20712;-73
2022/08/07 06:18:32;;;;;;;1.25;0.95;;;14.90;99.90;;;;;;5022352;28;20540;-73
2022/08/07 06:21:00;;;;;;;1.20;0.80;;;15.00;99.90;;;;;;5022442;28;20076;-74
2022/08/07 06:23:25;;;;;;;1.00;0.85;;;15.10;99.90;;;;;;5020903;28;20601;-72
2022/08/07 06:25:51;;;;;;;2.90;1.00;;;15.30;99.90;;;;;;5020263;28;20036;-73
2022/08/07 06:28:17;;;;;;;0.90;0.88;;;15.50;99.90;;;;;;5022978;28;20572;-71
2022/08/07 06:30:43;;;;;;;0.68;0.68;;;15.60;99.90;;;;;;5016045;28;20172;-72
2022/08/07 06:33:08;;;;;;;1.02;0.80;;;15.70;99.90;;;;;;5015950;28;20100;-73
2022/08/07 06:35:35;;;;;;;1.20;0.75;;;15.70;99.90;;;;;;5017712;28;20107;-72
2022/08/07 06:38:01;;;;;;;1.80;0.82;;;15.80;98.70;;;;;;5032042;28;20033;-71
2022/08/07 06:40:33;;;;;;;0.95;0.80;;;15.90;97.90;;;;;;5021198;28;20100;-72
2022/08/07 06:43:01;;;;;;;0.80;0.80;;;16.10;97.70;;;;;;5021517;28;20033;-72
2022/08/07 06:45:27;;;;;;;0.93;0.82;;;16.30;95.70;;;;;;5022884;28;20033;-73
2022/08/07 06:47:53;;;;;;;1.85;0.70;;;16.40;95.90;;;;;;5021459;28;20017;-72
2022/08/07 06:50:19;;;;;;;1.25;1.15;;;16.40;94.60;;;;;;5024725;28;20029;-72
2022/08/07 06:52:51;;;;;;;1.13;0.88;;;16.50;95.10;;;;;;5023116;28;20017;-73
2022/08/07 06:55:23;;;;;;;0.47;0.43;;;16.50;95.40;;;;;;5023629;28;20060;-74
2022/08/07 06:57:51;;;;;;;0.63;0.60;;;16.60;94.40;;;;;;5022531;28;20036;-73
2022/08/07 07:00:19;;;;;;;0.98;0.63;;;16.70;93.20;;;;;;5019027;28;20036;-72
2022/08/07 07:02:46;;;;;;;0.63;0.55;;;16.90;92.00;;;;;;5023528;28;20072;-72
2022/08/07 07:05:13;;;;;;;1.02;0.77;;;17.10;86.90;;;;;;5021630;28;20044;-73
2022/08/07 07:07:39;;;;;;;0.88;0.70;;;17.20;85.40;;;;;;5020675;28;20067;-72
2022/08/07 07:10:04;;;;;;;0.80;0.60;;;17.20;84.60;;;;;;5015807;28;20068;-73
2022/08/07 07:12:38;;;;;;;1.05;0.90;;;17.30;85.00;;;;;;5017645;28;20037;-72
2022/08/07 07:15:13;;;;;;;0.57;0.57;;;17.80;90.80;;;;;;5021638;28;20041;-73
2022/08/07 07:17:55;;;;;;;0.73;0.63;;;17.90;90.30;;;;;;5024325;28;20444;-72
2022/08/07 07:20:33;;;;;;;0.90;0.80;;;17.90;87.90;;;;;;5023752;28;20112;-73
2022/08/07 07:22:59;;;;;;;1.10;0.77;;;17.80;81.60;;;;;;5030404;28;20092;-73
2022/08/07 07:25:25;;;;;;;0.60;0.60;;;18.00;82.90;;;;;;5026188;28;20094;-72
2022/08/07 07:28:14;;;;;;;1.25;0.57;;;18.00;80.00;;;;;;5026332;28;20036;-72
2022/08/07 07:30:47;;;;;;;0.60;0.60;;;17.90;84.00;;;;;;5019412;28;20564;-73
2022/08/07 07:33:16;;;;;;;4.05;0.70;;;17.90;77.20;;;;;;5016929;28;20495;-72
2022/08/07 07:35:49;;;;;;;0.70;0.45;;;18.00;83.00;;;;;;5019270;28;20041;-73
2022/08/07 07:38:18;;;;;;;3.92;0.75;;;18.10;75.40;;;;;;5019052;28;20021;-72
2022/08/07 07:40:45;;;;;;;0.70;0.70;;;18.10;76.40;;;;;;5016553;28;20091;-73
2022/08/07 07:43:13;;;;;;;0.70;0.63;;;18.40;82.20;;;;;;5028511;28;20506;-74
2022/08/07 07:45:40;;;;;;;0.95;0.70;;;18.50;77.80;;;;;;5026879;28;20036;-75
2022/08/07 07:48:09;;;;;;;1.08;0.98;;;18.50;74.90;;;;;;5022269;28;20112;-75
2022/08/07 07:50:36;;;;;;;0.65;0.57;;;18.50;75.20;;;;;;5025259;28;20036;-73
2022/08/07 07:53:02;;;;;;;1.13;0.63;;;18.60;72.70;;;;;;5016485;28;20508;-74
2022/08/07 07:55:30;;;;;;;0.90;0.43;;;18.60;80.20;;;;;;5022045;28;20091;-73
2022/08/07 07:57:57;;;;;;;0.70;0.70;;;18.60;71.90;;;;;;5019770;28;20944;-73
2022/08/07 08:00:24;;;;;;;1.17;0.85;;;18.70;72.30;;;;;;5018943;28;20513;-73
2022/08/07 08:02:54;;;;;;;0.52;0.50;;;18.70;74.10;;;;;;5019844;28;20021;-74
2022/08/07 08:05:21;;;;;;;0.70;0.70;;;18.90;73.50;;;;;;5019227;28;20040;-74
2022/08/07 08:07:48;;;;;;;0.90;0.80;;;18.90;73.40;;;;;;5025719;28;20064;-74
2022/08/07 08:10:14;;;;;;;1.58;0.80;;;18.90;69.80;;;;;;5024963;28;20048;-74
2022/08/07 08:12:40;;;;;;;0.43;0.43;;;18.90;71.60;;;;;;5021488;28;20155;-74
2022/08/07 08:15:07;;;;;;;2.25;1.42;;;19.00;69.60;;;;;;5024423;28;20088;-75
2022/08/07 08:17:34;;;;;;;3.30;0.80;;;18.90;72.90;;;;;;5017572;28;20040;-74
2022/08/07 08:20:04;;;;;;;0.60;0.60;;;19.20;78.50;;;;;;5022045;28;20104;-75
2022/08/07 08:28:04;;;;;;;2.15;0.40;;;19.40;71.40;;;;;;5023235;28;20055;-74
2022/08/07 08:30:34;;;;;;;2.97;0.50;;;19.60;71.70;;;;;;5021565;28;20566;-74
2022/08/07 08:33:02;;;;;;;0.60;0.60;;;19.60;68.40;;;;;;5022746;28;20018;-78
2022/08/07 08:35:30;;;;;;;0.50;0.50;;;19.60;67.80;;;;;;5024074;28;20025;-78
2022/08/07 08:38:01;;;;;;;0.60;0.60;;;19.50;67.80;;;;;;5023031;28;20033;-73
2022/08/07 08:40:32;;;;;;;1.48;0.73;;;19.60;68.50;;;;;;5022163;28;20052;-75
2022/08/07 08:43:17;;;;;;;0.77;0.70;;;19.90;75.00;;;;;;5025039;28;20021;-75
2022/08/07 08:46:08;;;;;;;1.05;0.50;;;19.90;69.70;;;;;;5024701;28;20088;-75
2022/08/07 08:48:42;;;;;;;1.52;0.95;;;19.80;69.20;;;;;;5025964;28;20061;-75
2022/08/07 08:51:11;;;;;;;0.88;0.70;;;19.60;65.70;;;;;;5026966;28;20033;-76
2022/08/07 08:54:01;;;;;;;0.57;0.57;;;19.50;66.80;;;;;;5026984;28;20091;-75
2022/08/07 08:56:32;;;;;;;1.80;0.85;;;19.60;65.20;;;;;;5027904;28;20113;-75
2022/08/07 08:59:48;;;;;;;3.95;0.77;;;19.80;66.30;;;;;;5025333;28;20975;-76
2022/08/07 09:02:33;;;;;;;0.80;0.57;;;20.00;64.90;;;;;;5037460;28;20168;-74
2022/08/07 09:05:26;;;;;;;3.65;1.00;;;20.50;70.50;;;;;;5024265;28;20037;-77
2022/08/07 09:08:19;;;;;;;1.00;0.90;;;20.80;62.40;;;;;;5028560;28;20425;-77
2022/08/07 09:11:24;;;;;;;0.57;0.57;;;20.90;60.90;;;;;;5030930;28;20090;-77
2022/08/07 09:14:09;;;;;;;1.08;0.60;;;20.80;63.40;;;;;;5038448;28;20091;-77
2022/08/07 09:17:03;;;;;;;3.50;0.95;;;20.70;65.00;;;;;;5032771;28;20048;-77
2022/08/07 09:19:44;;;;;;;0.50;0.50;;;20.60;63.70;;;;;;5025884;28;20092;-76
2022/08/07 09:22:50;;;;;;;1.65;0.93;;;20.80;65.60;;;;;;5018803;28;20025;-76
2022/08/07 09:25:25;;;;;;;0.70;0.68;;;21.20;63.50;;;;;;4989119;28;20037;-76
2022/08/07 09:28:06;;;;;;;3.15;1.63;;;21.30;60.00;;;;;;5022865;28;20135;-77
2022/08/07 09:31:10;;;;;;;0.73;0.73;;;21.30;60.30;;;;;;5021140;28;20033;-76
2022/08/07 09:33:59;;;;;;;0.98;0.77;;;21.30;60.70;;;;;;5022873;28;20108;-75
2022/08/07 09:36:35;;;;;;;0.60;0.60;;;21.20;60.60;;;;;;5023572;28;20104;-76
2022/08/07 09:39:25;;;;;;;1.50;1.00;;;21.30;62.30;;;;;;5026006;28;20028;-77
2022/08/07 09:42:17;;;;;;;1.50;0.82;;;21.40;58.90;;;;;;5020278;28;20032;-75
2022/08/07 09:45:03;;;;;;;0.70;0.60;;;21.70;60.90;;;;;;5024329;28;20033;-77
2022/08/07 09:48:06;;;;;;;1.38;0.85;;;22.00;58.00;;;;;;5026135;28;20057;-73
2022/08/07 09:50:49;;;;;;;0.73;0.63;;;22.30;57.70;;;;;;5019617;28;20041;-76
2022/08/07 09:53:16;;;;;;;0.70;0.70;;;22.50;60.40;;;;;;5017399;28;20021;-76
2022/08/07 09:56:22;;;;;;;0.90;0.60;;;22.50;56.00;;;;;;5023750;28;20128;-77
2022/08/07 09:59:03;;;;;;;0.70;0.70;;;22.60;53.90;;;;;;5023814;28;20024;-76
2022/08/07 10:02:06;;;;;;;0.60;0.60;;;22.80;56.90;;;;;;5014966;28;20109;-74
2022/08/07 10:04:48;;;;;;;0.60;0.60;;;22.70;59.00;;;;;;5027714;28;20114;-73
2022/08/07 10:07:43;;;;;;;0.90;0.90;;;22.60;58.80;;;;;;5022112;28;20029;-76
2022/08/07 10:10:36;;;;;;;0.60;0.60;;;22.60;53.30;;;;;;5022128;28;21518;-76
2022/08/07 10:13:21;;;;;;;1.50;0.73;;;22.50;54.00;;;;;;5019774;28;20029;-75
2022/08/07 10:16:14;;;;;;;0.63;0.63;;;22.50;55.50;;;;;;5016519;28;20118;-75
2022/08/07 10:19:12;;;;;;;0.80;0.60;;;22.10;55.50;;;;;;5019396;28;20017;-76
2022/08/07 10:22:07;;;;;;;2.08;0.90;;;21.90;54.80;;;;;;5050307;28;20033;-74
2022/08/07 10:24:56;;;;;;;0.90;0.85;;;21.80;55.50;;;;;;5014069;28;20756;-76
2022/08/07 10:27:40;;;;;;;0.63;0.60;;;22.00;56.00;;;;;;5019506;28;20028;-75
2022/08/07 10:30:10;;;;;;;0.57;0.57;;;22.30;54.90;;;;;;5017360;28;20092;-76
2022/08/07 10:33:09;;;;;;;0.90;0.90;;;22.70;53.70;;;;;;5018331;28;20030;-74
2022/08/07 10:36:02;;;;;;;0.60;0.60;;;23.30;57.10;;;;;;5013058;28;20028;-74
2022/08/07 10:38:57;;;;;;;0.85;0.80;;;23.80;53.70;;;;;;5019148;28;20100;-75
2022/08/07 10:41:23;;;;;;;1.83;0.65;;;23.90;51.10;;;;;;5024815;28;20116;-72
2022/08/07 10:44:26;;;;;;;0.82;0.68;;;24.50;51.80;;;;;;5024116;28;20164;-73
2022/08/07 10:47:24;;;;;;;0.50;0.50;;;24.70;50.20;;;;;;5019148;28;20132;-74
2022/08/07 10:49:58;;;;;;;1.75;0.73;;;24.40;52.70;;;;;;5016535;28;20029;-72
2022/08/07 10:52:37;;;;;;;0.85;0.80;;;23.90;50.00;;;;;;5025036;28;20025;-72
2022/08/07 10:55:13;;;;;;;0.57;0.57;;;23.40;53.30;;;;;;5023879;28;20117;-72
2022/08/07 10:58:16;;;;;;;0.75;0.68;;;23.30;54.70;;;;;;5020736;28;20663;-72
2022/08/07 11:01:18;;;;;;;1.25;1.00;;;23.60;52.80;;;;;;5047087;28;20128;-73
2022/08/07 11:04:10;;;;;;;0.77;0.73;;;23.60;54.70;;;;;;5019619;28;20041;-72
2022/08/07 11:07:17;;;;;;;0.85;0.80;;;23.80;53.70;;;;;;5024050;28;20480;-71
2022/08/07 11:09:48;;;;;;;0.93;0.57;;;23.90;53.60;;;;;;5025606;28;20116;-72
2022/08/07 11:12:17;;;;;;;2.03;1.05;;;23.80;53.30;;;;;;5019074;28;20034;-72
2022/08/07 11:14:49;;;;;;;1.73;0.85;;;23.60;54.20;;;;;;5027051;28;20120;-73
2022/08/07 11:17:23;;;;;;;2.15;0.70;;;23.70;53.10;;;;;;5017609;28;20041;-71
2022/08/07 11:20:05;;;;;;;0.70;0.70;;;23.90;53.30;;;;;;5016871;28;20045;-74
2022/08/07 11:22:34;;;;;;;0.63;0.60;;;23.80;53.40;;;;;;5015550;28;20022;-72
2022/08/07 11:25:09;;;;;;;1.23;0.93;;;24.20;52.10;;;;;;5019148;28;20029;-72
2022/08/07 11:27:44;;;;;;;0.75;0.70;;;24.70;50.00;;;;;;5018241;28;20132;-72
2022/08/07 11:30:16;;;;;;;1.25;0.75;;;25.40;47.90;;;;;;5017312;28;20508;-72
2022/08/07 11:32:53;;;;;;;3.20;1.70;;;25.80;45.90;;;;;;5023522;28;20036;-72
2022/08/07 11:35:26;;;;;;;0.63;0.63;;;25.80;47.50;;;;;;5024657;28;20048;-74
2022/08/07 11:38:01;;;;;;;0.93;0.82;;;26.10;48.40;;;;;;5029432;28;20195;-74
2022/08/07 11:40:40;;;;;;;1.77;1.05;;;26.60;46.00;;;;;;5015713;28;20077;-73
2022/08/07 11:43:26;;;;;;;0.60;0.60;;;26.90;47.90;;;;;;5019053;28;20515;-75
2022/08/07 11:46:27;;;;;;;1.15;0.80;;;27.20;44.10;;;;;;5016817;28;20025;-74
2022/08/07 11:49:28;;;;;;;0.63;0.63;;;27.20;42.30;;;;;;5016704;28;20076;-75
2022/08/07 11:52:29;;;;;;;1.08;0.90;;;27.70;41.80;;;;;;5019751;28;20040;-75
2022/08/07 11:55:09;;;;;;;0.50;0.50;;;27.40;43.40;;;;;;5019875;28;20037;-74
2022/08/07 11:57:46;;;;;;;1.05;0.80;;;26.20;47.80;;;;;;5030178;28;20034;-76
2022/08/07 12:00:18;;;;;;;0.60;0.60;;;25.60;48.50;;;;;;5018476;28;20032;-73
2022/08/07 12:03:34;;;;;;;1.10;0.90;;;24.90;49.80;;;;;;5017831;28;20038;-73
2022/08/07 12:06:17;;;;;;;0.60;0.60;;;24.40;51.40;;;;;;5016989;28;20025;-72
2022/08/07 12:09:02;;;;;;;1.85;1.17;;;24.20;51.50;;;;;;5016824;28;20029;-73
2022/08/07 12:11:39;;;;;;;0.68;0.60;;;23.80;52.30;;;;;;5017847;28;20617;-73
2022/08/07 12:14:17;;;;;;;0.50;0.50;;;24.00;51.60;;;;;;5016897;28;20033;-72
2022/08/07 12:17:05;;;;;;;1.27;1.00;;;24.10;52.30;;;;;;5016924;28;20431;-72
2022/08/07 12:19:43;;;;;;;0.68;0.68;;;24.20;51.40;;;;;;5017645;28;20037;-71
2022/08/07 12:22:36;;;;;;;0.50;0.50;;;24.30;50.00;;;;;;5020209;28;20213;-72
2022/08/07 12:28:00;;;;;;;0.60;0.60;;;24.60;52.30;;;;;;5023103;28;20032;-72
2022/08/07 12:30:31;;;;;;;0.60;0.60;;;24.90;52.70;;;;;;5022183;28;20133;-73
2022/08/07 12:32:59;;;;;;;;;;;24.50;51.80;;;;;;5024666;28;20506;-73
2022/08/07 12:35:27;;;;;;;0.60;0.60;;;24.40;46.50;;;;;;5012490;28;19915;-73
2022/08/07 12:37:54;;;;;;;1.80;1.38;;;24.20;48.60;;;;;;5014446;28;20029;-73
2022/08/07 12:40:22;;;;;;;1.05;0.90;;;24.10;48.50;;;;;;5024075;28;20033;-73
2022/08/07 12:42:52;;;;;;;0.95;0.77;;;24.10;49.30;;;;;;5021455;28;20038;-75
2022/08/07 12:45:22;;;;;;;0.80;0.77;;;24.30;50.40;;;;;;5016153;28;20499;-73
2022/08/07 12:48:06;;;;;;;1.83;0.90;;;24.30;50.20;;;;;;5022474;28;20072;-73
2022/08/07 12:51:08;;;;;;;1.40;0.90;;;24.30;51.50;;;;;;5024432;28;20036;-72
2022/08/07 12:53:44;;;;;;;0.75;0.73;;;24.80;49.80;;;;;;5019593;28;20384;-73
2022/08/07 12:56:18;;;;;;;1.02;0.55;;;25.10;50.90;;;;;;5018519;28;20026;-73
2022/08/07 12:58:46;;;;;;;0.80;0.80;;;25.20;49.10;;;;;;5018213;28;20029;-73
2022/08/07 13:01:54;;;;;;;0.60;0.60;;;25.20;51.40;;;;;;5020934;28;20056;-73
2022/08/07 13:04:42;;;;;;;1.00;0.90;;;25.00;50.90;;;;;;5022464;28;20056;-72
2022/08/07 13:07:21;;;;;;;3.75;0.73;;;25.10;52.50;;;;;;5019393;28;20040;-74
2022/08/07 13:10:18;;;;;;;1.05;0.80;;;25.00;51.80;;;;;;5020403;28;20349;-73
2022/08/07 13:13:04;;;;;;;0.70;0.70;;;24.40;51.50;;;;;;5019941;28;20037;-73
2022/08/07 13:15:52;;;;;;;0.60;0.60;;;24.30;51.70;;;;;;5021618;28;20021;-73
2022/08/07 13:18:24;;;;;;;0.90;0.80;;;24.30;51.50;;;;;;5020408;28;20538;-74
2022/08/07 13:21:01;;;;;;;0.77;0.60;;;24.60;48.50;;;;;;5020326;28;20468;-74
2022/08/07 13:23:51;;;;;;;0.85;0.85;;;24.80;48.90;;;;;;5019578;28;20568;-73
2022/08/07 13:26:41;;;;;;;0.73;0.67;;;24.90;49.50;;;;;;5027825;28;20500;-73
2022/08/07 13:29:15;;;;;;;0.63;0.63;;;25.00;50.40;;;;;;5023510;28;20106;-73